• Join FlightAware (Why Join?)
  • Login
  • US Flag 
04:56PM EST


 

Airport Tracker/Info


-or-


 

Live Flight TrackerFlight Track Log ✈ CHQ3038 ✈ 27-Apr-2012 ✈ KSDF - KDCA

Flight Track Log - Related Links

Times and Time Zones

All times are in EDT time to prevent confusion due to time zone crossing. See the CHQ3038 flight status page for this flight to view local times or setup timezone preferences in your user account.

Time Position Orientation Groundspeed Altitude Reporting Facility
EDT Latitude Longitude Course Direction KTS MPH feet Rate Location/Type
06:23AM 38.1570 -85.7139 338° Northwest  Level FlightAware Approximate
06:24AM 38.1080 -85.5987 314° West  Level FlightAware Approximate
06:24AM 38.2181 -85.7447 359° North 171 197 2,400  Level FAA TRACON SMA TRACON (SMA)
06:25AM 38.2553 -85.7456 84° East 215 247 4,000 2,220 Climbing FAA TRACON SMA TRACON (SMA)
06:26AM 38.2592 -85.6992 118° Southeast 244 281 5,400 2,220 Climbing FAA TRACON SMA TRACON (SMA)
06:26AM 38.2350 -85.6425 118° Southeast 267 307 7,000 2,340 Climbing FAA TRACON SMA TRACON (SMA)
06:27AM 38.2094 -85.5814 117° Southeast 285 328 8,500 2,100 Climbing FAA TRACON SMA TRACON (SMA)
06:28AM 38.1861 -85.5236 116° Southeast 300 345 9,800 1,980 Climbing FAA TRACON SMA TRACON (SMA)
06:28AM 38.1594 -85.4547 116° Southeast 317 365 11,200 1,980 Climbing FAA TRACON SMA TRACON (SMA)
06:29AM 38.1317 -85.3828 116° Southeast 330 380 12,500 1,860 Climbing FAA TRACON SMA TRACON (SMA)
06:30AM 38.1061 -85.3167 117° Southeast 341 392 13,700 1,800 Climbing FAA TRACON SMA TRACON (SMA)
06:30AM 38.0758 -85.2400 107° East 353 406 15,000 1,860 Climbing FAA TRACON SMA TRACON (SMA)
06:31AM 38.0556 -85.1558 100° East 361 415 16,200 1,800 Climbing FAA TRACON SMA TRACON (SMA)
06:32AM 38.0428 -85.0678 99° East 368 423 17,500 1,740 Climbing FAA TRACON SMA TRACON (SMA)
06:32AM 38.0333 -84.9881 99° East 373 429 18,600 1,740 Climbing FAA TRACON SMA TRACON (SMA)
06:33AM 38.0219 -84.8975 98° East 378 435 19,800 1,800 Climbing FAA TRACON SMA TRACON (SMA)
06:34AM 38.0128 -84.8153 99° East 383 441 21,000 1,800 Climbing FAA TRACON SMA TRACON (SMA)
06:34AM 38.0017 -84.7219 102° East 389 448 22,200 1,620 Climbing FAA TRACON SMA TRACON (SMA)
06:35AM 37.9878 -84.6375 99° East 382 440 23,200 1,560 Climbing Indianapolis Center
06:36AM 37.9703 -84.5003 84° East 389 448 24,800 1,620 Climbing Indianapolis Center
06:37AM 37.9817 -84.3633 78° East 397 457 26,500 1,620 Climbing Indianapolis Center
06:38AM 38.0056 -84.2239 79° East 397 457 28,100 1,620 Climbing Indianapolis Center
06:39AM 38.0272 -84.0869 80° East 396 456 29,800 1,440 Climbing Indianapolis Center
06:40AM 38.0464 -83.9500 79° East 390 449 31,000 600 Climbing Indianapolis Center
06:41AM 38.0697 -83.8022 79° East 404 465 31,000  Level Indianapolis Center
06:42AM 38.0931 -83.6494 80° East 428 493 31,000  Level Indianapolis Center
06:43AM 38.1158 -83.4911 80° East 444 511 31,000  Level Indianapolis Center
06:44AM 38.1367 -83.3325 80° East 452 520 31,000  Level Indianapolis Center
06:45AM 38.1592 -83.1767 75° East 452 520 31,000  Level Indianapolis Center
06:46AM 38.1919 -83.0258 72° East 447 514 31,000  Level Indianapolis Center
06:47AM 38.2286 -82.8775 72° East 447 514 31,000  Level Indianapolis Center
06:48AM 38.2633 -82.7397 71° East 447 514 31,000  Level Indianapolis Center
06:49AM 38.3017 -82.5936 81° East 441 507 31,000  Level Indianapolis Center
06:50AM 38.3231 -82.4186 91° East 446 513 31,000  Level Indianapolis Center
06:51AM 38.3214 -82.2519 90° East 452 520 31,000  Level Indianapolis Center
06:52AM 38.3217 -82.0878 91° East 458 527 31,000  Level Indianapolis Center
06:53AM 38.3192 -81.9158 91° East 465 535 31,000  Level Indianapolis Center
06:54AM 38.3169 -81.7492 92° East 465 535 31,000  Level Indianapolis Center
06:55AM 38.3122 -81.5850 91° East 470 541 31,000  Level Indianapolis Center
06:56AM 38.3092 -81.4131 91° East 475 547 31,000  Level Indianapolis Center
06:58AM 38.3056 -81.0956 91° East 482 555 31,000  Level Washington Center
06:59AM 38.3028 -80.9286 92° East 482 555 31,000  Level Washington Center
07:00AM 38.2983 -80.7431 86° East 482 555 31,000  Level Washington Center
07:01AM 38.3078 -80.5719 83° East 482 555 31,000  Level Washington Center
07:02AM 38.3228 -80.4086 83° East 477 549 31,000 -300 Level Washington Center
07:03AM 38.3397 -80.2403 84° East 477 549 30,400 -1,140 Descending Washington Center
07:04AM 38.3544 -80.0717 82° East 477 549 28,800 -1,620 Descending Washington Center
07:05AM 38.3706 -79.9164 83° East 482 555 27,300 -900 Descending Washington Center
07:06AM 38.3872 -79.7453 84° East 482 555 27,000 -180 Descending Washington Center
07:07AM 38.4011 -79.5764 84° East 482 555 27,000  Level Washington Center
07:08AM 38.4150 -79.4050 79° East 482 555 27,000 -60 Level Washington Center
07:09AM 38.4411 -79.2367 69° East 482 555 26,900 -1,140 Descending Washington Center
07:10AM 38.4944 -79.0561 69° East 482 555 24,800 -2,040 Descending Washington Center
07:11AM 38.5314 -78.9306 72° East 482 555 22,800 -2,580 Descending Washington Center
07:12AM 38.5736 -78.7625 70° East 471 542 19,800 -2,880 Descending Washington Center
07:13AM 38.6147 -78.6208 71° East 441 507 17,100 -2,220 Descending Washington Center
07:14AM 38.6514 -78.4839 69° East 417 480 15,300 -1,020 Descending Washington Center
07:15AM 38.6900 -78.3525 52° Northeast 400 460 15,100 -180 Descending Washington Center
07:16AM 38.7528 -78.2511 19° North 382 440 15,000 -60 Descending Washington Center
07:17AM 38.8453 -78.2092 29° Northeast 340 391 15,000  Level Washington Center
07:18AM 38.9322 -78.1481 41° Northeast 340 391 15,100 -360 Climbing Washington Center
07:19AM 39.0089 -78.0625 92° East 350 403 14,400 -1,320 Descending Washington Center
07:20AM 39.0053 -77.9261 117° Southeast 335 386 12,500 -1,680 Descending Washington Center
07:21AM 38.9536 -77.7939 102° East 330 380 11,100 -1,200 Descending Washington Center
07:22AM 38.9331 -77.6703 89° East 346 398 10,200 -1,380 Descending Washington Center
07:23AM 38.9350 -77.5503 99° East 341 392 8,500 -960 Descending Washington Center
07:24AM 38.9167 -77.4000 102° East 320 368 8,100 -360 Descending Potomac TRACON
07:25AM 38.9000 -77.3000 102° East 318 366 7,700 -720 Descending Potomac TRACON
07:26AM 38.8833 -77.2000 142° Southeast 303 349 6,800 -900 Descending Potomac TRACON
07:27AM 38.8167 -77.1333 169° South 301 346 6,000 -1,020 Descending Potomac TRACON
07:28AM 38.7500 -77.1167 180° South 272 313 4,900 -1,260 Descending Potomac TRACON
07:29AM 38.6833 -77.1167 123° Southeast 256 295 3,600 -1,260 Descending Potomac TRACON
07:30AM 38.6500 -77.0500 15° North 251 289 2,500 -600 Descending Potomac TRACON
07:31AM 38.7000 -77.0333 15° North 197 227 2,500  Level Potomac TRACON